Terminal Aerodrome Forecast
Issued by NWS Cleveland, OH

Home | Current Version | Previous Version | Graphics & Text | Print | Product List | Glossary Off
Versions: 1 2 3 4 5 6 7 8 9 10 11 12 13 14 15 16 17 18 19 20 21 22 23 24 25 26 27 28 29 30 31 32

000
FTUS41 KCLE 230800 AAA
TAFCLE
TAF AMD
KCLE 230853Z 2309/2412 VRB03KT 6SM BR BKN060
      TEMPO 2310/2313 4SM BR
     FM231400 06006KT P6SM SCT020 BKN060
     FM231700 04008KT P6SM SCT035
     FM240000 05005KT P6SM FEW040
     FM240600 08004KT 5SM BR SCT040=

USA.gov is the U.S. government's official web portal to all federal, state and local government web resources and services.